EGV87U EGKK-EGCC
Flight info
| Callsign | EGV87U |
|---|---|
| Flight time | 0h 36m |
| Altitude | 24000 |
| Route | LAM N57 WELIN DCT TIMPO DCT ELVOS DCT TNT |
| Aircraft | A343/H-SDE2E3FGHIJ4J5M1RWXY/LB1D1 |
Departure
| Time | 2026-05-07 13:55 |
|---|---|
| Airport | London Gatwick Airport (EGKK) |
Arrival
| Time | 2026-05-07 14:32 |
|---|---|
| Airport | Manchester Airport (EGCC) |
| Time | Latitude | Longitude | Altitude | Speed | Heading |
|---|---|---|---|---|---|
| 2026-05-07 13:23 | 51.15565 | -0.17101 | 208 ft | 0 kts | 168° |
| 2026-05-07 13:40 | 51.15576 | -0.17104 | 208 ft | 4 kts | 168° |
| 2026-05-07 13:40 | 51.15599 | -0.17112 | 213 ft | 2 kts | 168° |
| 2026-05-07 13:40 | 51.15622 | -0.17115 | 212 ft | 4 kts | 205° |
| 2026-05-07 13:41 | 51.15636 | -0.17090 | 215 ft | 3 kts | 258° |
| 2026-05-07 13:41 | 51.15642 | -0.17050 | 210 ft | 3 kts | 258° |
| 2026-05-07 13:41 | 51.15642 | -0.17046 | 210 ft | 0 kts | 258° |
| 2026-05-07 13:45 | 51.15642 | -0.17048 | 210 ft | 1 kts | 258° |
| 2026-05-07 13:45 | 51.15635 | -0.17097 | 216 ft | 8 kts | 258° |
| 2026-05-07 13:45 | 51.15615 | -0.17242 | 216 ft | 16 kts | 256° |
| 2026-05-07 13:46 | 51.15576 | -0.17412 | 213 ft | 16 kts | 237° |
| 2026-05-07 13:46 | 51.15530 | -0.17575 | 217 ft | 17 kts | 257° |
| 2026-05-07 13:46 | 51.15504 | -0.17760 | 218 ft | 18 kts | 257° |
| 2026-05-07 13:46 | 51.15476 | -0.17956 | 216 ft | 19 kts | 258° |
| 2026-05-07 13:47 | 51.15449 | -0.18162 | 215 ft | 19 kts | 257° |
| 2026-05-07 13:47 | 51.15401 | -0.18272 | 218 ft | 6 kts | 187° |
| 2026-05-07 13:47 | 51.15335 | -0.18259 | 212 ft | 17 kts | 168° |
| 2026-05-07 13:47 | 51.15206 | -0.18244 | 217 ft | 14 kts | 206° |
| 2026-05-07 13:48 | 51.15182 | -0.18333 | 213 ft | 14 kts | 261° |
| 2026-05-07 13:48 | 51.15156 | -0.18545 | 217 ft | 21 kts | 258° |
| 2026-05-07 13:48 | 51.15121 | -0.18796 | 213 ft | 27 kts | 257° |
| 2026-05-07 13:48 | 51.15080 | -0.19100 | 214 ft | 28 kts | 258° |
| 2026-05-07 13:49 | 51.15037 | -0.19408 | 215 ft | 28 kts | 257° |
| 2026-05-07 13:49 | 51.14994 | -0.19717 | 212 ft | 29 kts | 257° |
| 2026-05-07 13:49 | 51.14950 | -0.20027 | 213 ft | 29 kts | 257° |
| 2026-05-07 13:49 | 51.14906 | -0.20344 | 213 ft | 29 kts | 257° |
| 2026-05-07 13:50 | 51.14865 | -0.20657 | 212 ft | 29 kts | 258° |
| 2026-05-07 13:50 | 51.14821 | -0.20973 | 216 ft | 29 kts | 257° |
| 2026-05-07 13:50 | 51.14783 | -0.21190 | 213 ft | 5 kts | 250° |
| 2026-05-07 13:50 | 51.14767 | -0.21281 | 215 ft | 14 kts | 258° |
| 2026-05-07 13:51 | 51.14743 | -0.21379 | 220 ft | 0 kts | 223° |
| 2026-05-07 13:51 | 51.14728 | -0.21389 | 220 ft | 6 kts | 195° |
| 2026-05-07 13:51 | 51.14656 | -0.21351 | 216 ft | 14 kts | 150° |
| 2026-05-07 13:51 | 51.14622 | -0.21330 | 217 ft | 0 kts | 164° |
| 2026-05-07 13:52 | 51.14617 | -0.21328 | 216 ft | 4 kts | 164° |
| 2026-05-07 13:52 | 51.14569 | -0.21301 | 208 ft | 10 kts | 154° |
| 2026-05-07 13:53 | 51.14520 | -0.21192 | 215 ft | 12 kts | 100° |
| 2026-05-07 13:53 | 51.14527 | -0.21122 | 217 ft | 0 kts | 78° |
| 2026-05-07 13:54 | 51.14530 | -0.21101 | 216 ft | 10 kts | 78° |
| 2026-05-07 13:54 | 51.14586 | -0.20686 | 219 ft | 70 kts | 77° |
| 2026-05-07 13:54 | 51.14735 | -0.19611 | 215 ft | 124 kts | 78° |
| 2026-05-07 13:55 | 51.14960 | -0.18091 | 390 ft | 151 kts | 77° |
| 2026-05-07 13:55 | 51.15216 | -0.16434 | 991 ft | 158 kts | 78° |
| 2026-05-07 13:55 | 51.15478 | -0.14664 | 1495 ft | 175 kts | 80° |
| 2026-05-07 13:55 | 51.15733 | -0.12625 | 1815 ft | 199 kts | 79° |
| 2026-05-07 13:56 | 51.16032 | -0.10287 | 2207 ft | 231 kts | 79° |
| 2026-05-07 13:56 | 51.16401 | -0.07714 | 3013 ft | 244 kts | 74° |
| 2026-05-07 13:56 | 51.17195 | -0.05340 | 3962 ft | 250 kts | 53° |
| 2026-05-07 13:56 | 51.18272 | -0.03123 | 4948 ft | 256 kts | 51° |
| 2026-05-07 13:57 | 51.19390 | -0.00864 | 5890 ft | 263 kts | 52° |
| 2026-05-07 13:57 | 51.20519 | 0.01437 | 6796 ft | 266 kts | 52° |
| 2026-05-07 13:57 | 51.21669 | 0.03804 | 7706 ft | 272 kts | 53° |
| 2026-05-07 13:57 | 51.22839 | 0.06221 | 8566 ft | 279 kts | 53° |
| 2026-05-07 13:58 | 51.24032 | 0.08697 | 9479 ft | 284 kts | 53° |
| 2026-05-07 13:58 | 51.25028 | 0.11426 | 10303 ft | 287 kts | 72° |
| 2026-05-07 13:58 | 51.25494 | 0.14522 | 11099 ft | 289 kts | 81° |
| 2026-05-07 13:58 | 51.25856 | 0.17709 | 11905 ft | 293 kts | 81° |
| 2026-05-07 13:59 | 51.26221 | 0.20896 | 12698 ft | 297 kts | 81° |
| 2026-05-07 13:59 | 51.26596 | 0.24120 | 13491 ft | 301 kts | 81° |
| 2026-05-07 13:59 | 51.26980 | 0.27416 | 14201 ft | 305 kts | 81° |
| 2026-05-07 13:59 | 51.27379 | 0.30774 | 14858 ft | 310 kts | 79° |
| 2026-05-07 14:00 | 51.28067 | 0.34062 | 15475 ft | 317 kts | 63° |
| 2026-05-07 14:00 | 51.29439 | 0.36832 | 16103 ft | 322 kts | 40° |
| 2026-05-07 14:00 | 51.31379 | 0.38598 | 16766 ft | 325 kts | 17° |
| 2026-05-07 14:00 | 51.33608 | 0.39082 | 17602 ft | 326 kts | 354° |
| 2026-05-07 14:01 | 51.35792 | 0.38204 | 18252 ft | 325 kts | 332° |
| 2026-05-07 14:01 | 51.37585 | 0.36137 | 18842 ft | 323 kts | 310° |
| 2026-05-07 14:01 | 51.38980 | 0.33311 | 19424 ft | 325 kts | 307° |
| 2026-05-07 14:01 | 51.40693 | 0.30929 | 20010 ft | 332 kts | 328° |
| 2026-05-07 14:02 | 51.42802 | 0.29351 | 20619 ft | 336 kts | 335° |
| 2026-05-07 14:02 | 51.44982 | 0.27943 | 21211 ft | 339 kts | 336° |
| 2026-05-07 14:02 | 51.47181 | 0.26533 | 21795 ft | 342 kts | 336° |
| 2026-05-07 14:02 | 51.49393 | 0.25106 | 22371 ft | 344 kts | 335° |
| 2026-05-07 14:03 | 51.51627 | 0.23664 | 22951 ft | 347 kts | 335° |
| 2026-05-07 14:03 | 51.53873 | 0.22201 | 23516 ft | 350 kts | 335° |
| 2026-05-07 14:03 | 51.56109 | 0.20739 | 23910 ft | 355 kts | 335° |
| 2026-05-07 14:03 | 51.58406 | 0.19237 | 24062 ft | 357 kts | 335° |
| 2026-05-07 14:04 | 51.60704 | 0.17733 | 24074 ft | 357 kts | 335° |
| 2026-05-07 14:04 | 51.62968 | 0.16144 | 24072 ft | 356 kts | 330° |
| 2026-05-07 14:04 | 51.65055 | 0.14075 | 24072 ft | 354 kts | 320° |
| 2026-05-07 14:04 | 51.66956 | 0.11442 | 24068 ft | 369 kts | 315° |
| 2026-05-07 14:05 | 51.68842 | 0.08489 | 24061 ft | 386 kts | 313° |
| 2026-05-07 14:05 | 51.70754 | 0.05328 | 24057 ft | 403 kts | 312° |
| 2026-05-07 14:05 | 51.72726 | 0.02006 | 24050 ft | 419 kts | 311° |
| 2026-05-07 14:05 | 51.74764 | -0.01427 | 24057 ft | 435 kts | 312° |
| 2026-05-07 14:06 | 51.76891 | -0.04990 | 24055 ft | 446 kts | 312° |
| 2026-05-07 14:06 | 51.79059 | -0.08594 | 24064 ft | 447 kts | 312° |
| 2026-05-07 14:06 | 51.81221 | -0.12170 | 24075 ft | 445 kts | 313° |
| 2026-05-07 14:06 | 51.83388 | -0.15753 | 24053 ft | 446 kts | 313° |
| 2026-05-07 14:07 | 51.85556 | -0.19341 | 24052 ft | 446 kts | 313° |
| 2026-05-07 14:07 | 51.87726 | -0.22938 | 24049 ft | 447 kts | 313° |
| 2026-05-07 14:07 | 51.89890 | -0.26532 | 24046 ft | 447 kts | 313° |
| 2026-05-07 14:07 | 51.92062 | -0.30148 | 24048 ft | 447 kts | 312° |
| 2026-05-07 14:08 | 51.94219 | -0.33744 | 24049 ft | 447 kts | 312° |
| 2026-05-07 14:08 | 51.96386 | -0.37363 | 24048 ft | 447 kts | 312° |
| 2026-05-07 14:08 | 51.98518 | -0.40929 | 24048 ft | 447 kts | 312° |
| 2026-05-07 14:08 | 52.00677 | -0.44547 | 24048 ft | 447 kts | 312° |
| 2026-05-07 14:09 | 52.02842 | -0.48180 | 24045 ft | 447 kts | 312° |
| 2026-05-07 14:09 | 52.05000 | -0.51806 | 24053 ft | 447 kts | 312° |
| 2026-05-07 14:09 | 52.07159 | -0.55440 | 24046 ft | 448 kts | 312° |
| 2026-05-07 14:09 | 52.09320 | -0.59081 | 24048 ft | 448 kts | 312° |
| 2026-05-07 14:10 | 52.11488 | -0.62740 | 24047 ft | 448 kts | 312° |
| 2026-05-07 14:10 | 52.13644 | -0.66383 | 24048 ft | 448 kts | 312° |
| 2026-05-07 14:10 | 52.15807 | -0.70044 | 24047 ft | 448 kts | 312° |
| 2026-05-07 14:10 | 52.17972 | -0.73714 | 24047 ft | 448 kts | 312° |
| 2026-05-07 14:11 | 52.20106 | -0.77337 | 24045 ft | 448 kts | 312° |
| 2026-05-07 14:11 | 52.22261 | -0.81001 | 24042 ft | 448 kts | 312° |
| 2026-05-07 14:11 | 52.24512 | -0.84517 | 24039 ft | 450 kts | 320° |
| 2026-05-07 14:11 | 52.27058 | -0.87488 | 24040 ft | 451 kts | 324° |
| 2026-05-07 14:12 | 52.29702 | -0.90282 | 24042 ft | 452 kts | 327° |
| 2026-05-07 14:12 | 52.32375 | -0.92969 | 24037 ft | 453 kts | 327° |
| 2026-05-07 14:12 | 52.35081 | -0.95631 | 24044 ft | 454 kts | 328° |
| 2026-05-07 14:12 | 52.37783 | -0.98279 | 24047 ft | 454 kts | 328° |
| 2026-05-07 14:13 | 52.40434 | -1.00887 | 23688 ft | 446 kts | 327° |
| 2026-05-07 14:13 | 52.43068 | -1.03493 | 22571 ft | 434 kts | 327° |
| 2026-05-07 14:13 | 52.45568 | -1.05982 | 21873 ft | 408 kts | 327° |
| 2026-05-07 14:13 | 52.47960 | -1.08375 | 21317 ft | 403 kts | 327° |
| 2026-05-07 14:14 | 52.50353 | -1.10782 | 20747 ft | 401 kts | 327° |
| 2026-05-07 14:14 | 52.52715 | -1.13164 | 20194 ft | 399 kts | 327° |
| 2026-05-07 14:14 | 52.55082 | -1.15553 | 19657 ft | 396 kts | 327° |
| 2026-05-07 14:14 | 52.57421 | -1.17910 | 19119 ft | 394 kts | 327° |
| 2026-05-07 14:15 | 52.59757 | -1.20264 | 18585 ft | 395 kts | 327° |
| 2026-05-07 14:15 | 52.62101 | -1.22635 | 18001 ft | 395 kts | 327° |
| 2026-05-07 14:15 | 52.64402 | -1.24966 | 17445 ft | 392 kts | 327° |
| 2026-05-07 14:15 | 52.66717 | -1.27313 | 16913 ft | 389 kts | 327° |
| 2026-05-07 14:16 | 52.69019 | -1.29652 | 16381 ft | 387 kts | 327° |
| 2026-05-07 14:16 | 52.71302 | -1.31969 | 15854 ft | 385 kts | 327° |
| 2026-05-07 14:16 | 52.73578 | -1.34281 | 15361 ft | 382 kts | 327° |
| 2026-05-07 14:16 | 52.75834 | -1.36581 | 14830 ft | 381 kts | 327° |
| 2026-05-07 14:17 | 52.78079 | -1.38874 | 14299 ft | 379 kts | 327° |
| 2026-05-07 14:17 | 52.80327 | -1.41175 | 13749 ft | 379 kts | 327° |
| 2026-05-07 14:17 | 52.82561 | -1.43463 | 13186 ft | 377 kts | 327° |
| 2026-05-07 14:17 | 52.84752 | -1.45706 | 12661 ft | 375 kts | 327° |
| 2026-05-07 14:18 | 52.86964 | -1.47975 | 12129 ft | 373 kts | 327° |
| 2026-05-07 14:18 | 52.89161 | -1.50229 | 11605 ft | 371 kts | 327° |
| 2026-05-07 14:18 | 52.91346 | -1.52474 | 11269 ft | 364 kts | 326° |
| 2026-05-07 14:18 | 52.93456 | -1.54642 | 11166 ft | 351 kts | 326° |
| 2026-05-07 14:19 | 52.95495 | -1.56738 | 11052 ft | 339 kts | 326° |
| 2026-05-07 14:19 | 52.97466 | -1.58770 | 10926 ft | 328 kts | 326° |
| 2026-05-07 14:19 | 52.99383 | -1.60749 | 10780 ft | 320 kts | 326° |
| 2026-05-07 14:19 | 53.01222 | -1.62649 | 10645 ft | 312 kts | 326° |
| 2026-05-07 14:20 | 53.03041 | -1.64531 | 10497 ft | 305 kts | 325° |
| 2026-05-07 14:20 | 53.04830 | -1.66386 | 10255 ft | 302 kts | 325° |
| 2026-05-07 14:20 | 53.06607 | -1.68232 | 10022 ft | 299 kts | 325° |
| 2026-05-07 14:20 | 53.08360 | -1.70054 | 9798 ft | 297 kts | 325° |
| 2026-05-07 14:21 | 53.10118 | -1.71879 | 9534 ft | 296 kts | 325° |
| 2026-05-07 14:21 | 53.11858 | -1.73690 | 9317 ft | 295 kts | 325° |
| 2026-05-07 14:21 | 53.13596 | -1.75499 | 9065 ft | 294 kts | 325° |
| 2026-05-07 14:21 | 53.15325 | -1.77303 | 8809 ft | 293 kts | 325° |
| 2026-05-07 14:22 | 53.17020 | -1.79078 | 8596 ft | 291 kts | 325° |
| 2026-05-07 14:22 | 53.18730 | -1.80878 | 8364 ft | 289 kts | 325° |
| 2026-05-07 14:22 | 53.20425 | -1.82663 | 8144 ft | 288 kts | 325° |
| 2026-05-07 14:22 | 53.22116 | -1.84440 | 7911 ft | 287 kts | 325° |
| 2026-05-07 14:23 | 53.23800 | -1.86211 | 7665 ft | 286 kts | 325° |
| 2026-05-07 14:23 | 53.25475 | -1.87971 | 7448 ft | 284 kts | 325° |
| 2026-05-07 14:23 | 53.27143 | -1.89716 | 7230 ft | 282 kts | 325° |
| 2026-05-07 14:23 | 53.28808 | -1.91461 | 7001 ft | 281 kts | 325° |
| 2026-05-07 14:24 | 53.30458 | -1.93181 | 6779 ft | 279 kts | 325° |
| 2026-05-07 14:24 | 53.32106 | -1.94903 | 6552 ft | 278 kts | 325° |
| 2026-05-07 14:24 | 53.33826 | -1.96296 | 6328 ft | 281 kts | 340° |
| 2026-05-07 14:24 | 53.35734 | -1.97001 | 6097 ft | 281 kts | 349° |
| 2026-05-07 14:25 | 53.37657 | -1.97471 | 5847 ft | 279 kts | 350° |
| 2026-05-07 14:25 | 53.39581 | -1.97905 | 5438 ft | 277 kts | 351° |
| 2026-05-07 14:25 | 53.41445 | -1.98305 | 5126 ft | 262 kts | 350° |
| 2026-05-07 14:25 | 53.43200 | -1.98678 | 4824 ft | 246 kts | 351° |
| 2026-05-07 14:26 | 53.44842 | -1.99027 | 4574 ft | 230 kts | 351° |
| 2026-05-07 14:26 | 53.46353 | -1.99538 | 4312 ft | 214 kts | 338° |
| 2026-05-07 14:26 | 53.47400 | -2.00999 | 4133 ft | 184 kts | 290° |
| 2026-05-07 14:26 | 53.47427 | -2.02842 | 4069 ft | 150 kts | 239° |
| 2026-05-07 14:27 | 53.46830 | -2.04148 | 3854 ft | 137 kts | 224° |
| 2026-05-07 14:27 | 53.46179 | -2.05285 | 3558 ft | 134 kts | 224° |
| 2026-05-07 14:27 | 53.45564 | -2.06452 | 3312 ft | 133 kts | 225° |
| 2026-05-07 14:27 | 53.44984 | -2.07677 | 3122 ft | 135 kts | 226° |
| 2026-05-07 14:28 | 53.44393 | -2.08908 | 2912 ft | 135 kts | 225° |
| 2026-05-07 14:28 | 53.43798 | -2.10132 | 2723 ft | 135 kts | 227° |
| 2026-05-07 14:28 | 53.43206 | -2.11357 | 2557 ft | 135 kts | 226° |
| 2026-05-07 14:28 | 53.42613 | -2.12580 | 2362 ft | 135 kts | 227° |
| 2026-05-07 14:29 | 53.42023 | -2.13799 | 2175 ft | 135 kts | 227° |
| 2026-05-07 14:29 | 53.41442 | -2.15000 | 1989 ft | 134 kts | 225° |
| 2026-05-07 14:29 | 53.40858 | -2.16205 | 1814 ft | 134 kts | 225° |
| 2026-05-07 14:29 | 53.40271 | -2.17416 | 1624 ft | 133 kts | 226° |
| 2026-05-07 14:30 | 53.39686 | -2.18623 | 1433 ft | 133 kts | 226° |
| 2026-05-07 14:30 | 53.39104 | -2.19823 | 1256 ft | 132 kts | 226° |
| 2026-05-07 14:30 | 53.38525 | -2.21018 | 1047 ft | 131 kts | 226° |
| 2026-05-07 14:30 | 53.37951 | -2.22218 | 865 ft | 133 kts | 229° |
| 2026-05-07 14:31 | 53.37357 | -2.23421 | 682 ft | 136 kts | 224° |
| 2026-05-07 14:31 | 53.36765 | -2.24622 | 479 ft | 131 kts | 229° |
| 2026-05-07 14:31 | 53.36198 | -2.25785 | 312 ft | 131 kts | 228° |
| 2026-05-07 14:31 | 53.35663 | -2.26877 | 267 ft | 100 kts | 231° |
| 2026-05-07 14:32 | 53.35399 | -2.27449 | 247 ft | 45 kts | 230° |
| 2026-05-07 14:32 | 53.35260 | -2.27863 | 241 ft | 38 kts | 256° |
| 2026-05-07 14:32 | 53.35232 | -2.28152 | 237 ft | 10 kts | 276° |
| 2026-05-07 14:32 | 53.35275 | -2.28205 | 239 ft | 6 kts | 356° |
| 2026-05-07 14:33 | 53.35279 | -2.28202 | 238 ft | 0 kts | 15° |
| 2026-05-07 14:34 | 53.35292 | -2.28196 | 237 ft | 3 kts | 15° |
| 2026-05-07 14:34 | 53.35313 | -2.28187 | 238 ft | 5 kts | 14° |
| 2026-05-07 14:35 | 53.35376 | -2.28168 | 239 ft | 11 kts | 9° |
| 2026-05-07 14:35 | 53.35449 | -2.28147 | 239 ft | 12 kts | 12° |
| 2026-05-07 14:35 | 53.35533 | -2.28075 | 238 ft | 15 kts | 44° |
| 2026-05-07 14:35 | 53.35595 | -2.27963 | 243 ft | 12 kts | 49° |
| 2026-05-07 14:36 | 53.35704 | -2.27882 | 249 ft | 23 kts | 6° |
| 2026-05-07 14:36 | 53.35853 | -2.27857 | 257 ft | 21 kts | 6° |
| 2026-05-07 14:36 | 53.35998 | -2.27914 | 259 ft | 24 kts | 325° |
| 2026-05-07 14:36 | 53.36139 | -2.28121 | 259 ft | 28 kts | 314° |
| 2026-05-07 14:37 | 53.36274 | -2.28352 | 259 ft | 28 kts | 314° |
| 2026-05-07 14:37 | 53.36550 | -2.28708 | 259 ft | 25 kts | 314° |
| 2026-05-07 14:37 | 53.36638 | -2.28764 | 259 ft | 8 kts | 29° |
| 2026-05-07 14:38 | 53.36734 | -2.28611 | 259 ft | 25 kts | 45° |
| 2026-05-07 14:38 | 53.36826 | -2.28463 | 259 ft | 0 kts | 34° |
| 2026-05-07 14:38 | 53.36849 | -2.28462 | 259 ft | 5 kts | 346° |
| 2026-05-07 14:38 | 53.36875 | -2.28493 | 259 ft | 4 kts | 326° |
| 2026-05-07 14:39 | 53.36884 | -2.28508 | 259 ft | 2 kts | 315° |
| 2026-05-07 14:39 | 53.36890 | -2.28517 | 259 ft | 1 kts | 315° |